sensor_id;sensor_type;location;lat;lon;timestamp;P1;durP1;ratioP1;P2;durP2;ratioP2
25381;SDS011;16307;42.896;20.874;2023-10-31T00:01:20;20.20;;;10.15;;
25381;SDS011;16307;42.896;20.874;2023-10-31T00:04:06;24.38;;;11.23;;
25381;SDS011;16307;42.896;20.874;2023-10-31T00:06:52;28.38;;;12.15;;
25381;SDS011;16307;42.896;20.874;2023-10-31T00:09:38;25.25;;;11.07;;
25381;SDS011;16307;42.896;20.874;2023-10-31T00:12:25;26.80;;;11.15;;
25381;SDS011;16307;42.896;20.874;2023-10-31T00:15:11;21.20;;;10.30;;
25381;SDS011;16307;42.896;20.874;2023-10-31T00:17:57;20.67;;;8.60;;
25381;SDS011;16307;42.896;20.874;2023-10-31T00:20:43;20.80;;;8.93;;
25381;SDS011;16307;42.896;20.874;2023-10-31T00:23:30;16.48;;;8.35;;
25381;SDS011;16307;42.896;20.874;2023-10-31T00:26:16;17.40;;;7.50;;
25381;SDS011;16307;42.896;20.874;2023-10-31T00:29:09;20.10;;;8.68;;
25381;SDS011;16307;42.896;20.874;2023-10-31T00:31:55;19.23;;;8.82;;
25381;SDS011;16307;42.896;20.874;2023-10-31T00:34:41;25.10;;;10.77;;
25381;SDS011;16307;42.896;20.874;2023-10-31T00:37:27;20.20;;;10.27;;
25381;SDS011;16307;42.896;20.874;2023-10-31T00:40:13;22.63;;;9.32;;
25381;SDS011;16307;42.896;20.874;2023-10-31T00:42:59;21.42;;;10.02;;
25381;SDS011;16307;42.896;20.874;2023-10-31T00:45:46;20.40;;;9.45;;
25381;SDS011;16307;42.896;20.874;2023-10-31T00:48:32;22.38;;;10.68;;
25381;SDS011;16307;42.896;20.874;2023-10-31T00:51:22;18.30;;;9.60;;
25381;SDS011;16307;42.896;20.874;2023-10-31T00:54:08;21.30;;;10.43;;
25381;SDS011;16307;42.896;20.874;2023-10-31T00:56:54;22.83;;;10.68;;
25381;SDS011;16307;42.896;20.874;2023-10-31T00:59:40;23.95;;;11.63;;
25381;SDS011;16307;42.896;20.874;2023-10-31T01:02:26;22.60;;;10.48;;
25381;SDS011;16307;42.896;20.874;2023-10-31T01:05:12;23.05;;;11.00;;
25381;SDS011;16307;42.896;20.874;2023-10-31T01:07:58;23.17;;;9.93;;
25381;SDS011;16307;42.896;20.874;2023-10-31T01:10:45;21.58;;;10.32;;
25381;SDS011;16307;42.896;20.874;2023-10-31T01:13:31;28.95;;;11.38;;
25381;SDS011;16307;42.896;20.874;2023-10-31T01:16:18;27.23;;;11.48;;
25381;SDS011;16307;42.896;20.874;2023-10-31T01:19:04;29.15;;;12.77;;
25381;SDS011;16307;42.896;20.874;2023-10-31T01:21:51;22.88;;;12.13;;
25381;SDS011;16307;42.896;20.874;2023-10-31T01:24:37;31.60;;;14.50;;
25381;SDS011;16307;42.896;20.874;2023-10-31T01:27:23;32.67;;;12.57;;
25381;SDS011;16307;42.896;20.874;2023-10-31T01:30:09;23.20;;;10.32;;
25381;SDS011;16307;42.896;20.874;2023-10-31T01:32:56;25.42;;;10.98;;
25381;SDS011;16307;42.896;20.874;2023-10-31T01:35:43;29.42;;;13.15;;
25381;SDS011;16307;42.896;20.874;2023-10-31T01:38:29;28.17;;;13.02;;
25381;SDS011;16307;42.896;20.874;2023-10-31T01:41:15;30.30;;;13.07;;
25381;SDS011;16307;42.896;20.874;2023-10-31T01:44:01;24.25;;;12.13;;
25381;SDS011;16307;42.896;20.874;2023-10-31T01:46:48;24.53;;;11.43;;
25381;SDS011;16307;42.896;20.874;2023-10-31T01:49:34;23.13;;;11.35;;
25381;SDS011;16307;42.896;20.874;2023-10-31T01:52:23;18.95;;;10.00;;
25381;SDS011;16307;42.896;20.874;2023-10-31T01:55:09;22.17;;;10.20;;
25381;SDS011;16307;42.896;20.874;2023-10-31T01:57:56;19.45;;;9.90;;
25381;SDS011;16307;42.896;20.874;2023-10-31T02:00:42;29.08;;;10.00;;
25381;SDS011;16307;42.896;20.874;2023-10-31T02:03:29;24.20;;;10.52;;
25381;SDS011;16307;42.896;20.874;2023-10-31T02:06:15;22.05;;;9.18;;
25381;SDS011;16307;42.896;20.874;2023-10-31T02:09:01;20.63;;;9.00;;
25381;SDS011;16307;42.896;20.874;2023-10-31T02:11:47;15.95;;;8.02;;
25381;SDS011;16307;42.896;20.874;2023-10-31T02:14:34;19.50;;;8.55;;
25381;SDS011;16307;42.896;20.874;2023-10-31T02:17:20;14.13;;;8.45;;
25381;SDS011;16307;42.896;20.874;2023-10-31T02:20:06;23.30;;;9.85;;
25381;SDS011;16307;42.896;20.874;2023-10-31T02:22:53;21.13;;;9.85;;
25381;SDS011;16307;42.896;20.874;2023-10-31T02:25:39;18.30;;;9.85;;
25381;SDS011;16307;42.896;20.874;2023-10-31T02:28:25;19.08;;;9.45;;
25381;SDS011;16307;42.896;20.874;2023-10-31T02:31:14;19.10;;;9.38;;
25381;SDS011;16307;42.896;20.874;2023-10-31T02:33:59;19.88;;;9.98;;
25381;SDS011;16307;42.896;20.874;2023-10-31T02:36:46;17.23;;;8.70;;
25381;SDS011;16307;42.896;20.874;2023-10-31T02:39:33;18.88;;;8.75;;
25381;SDS011;16307;42.896;20.874;2023-10-31T02:42:19;19.23;;;9.57;;
25381;SDS011;16307;42.896;20.874;2023-10-31T02:45:06;20.58;;;10.20;;
25381;SDS011;16307;42.896;20.874;2023-10-31T02:47:52;17.75;;;9.90;;
25381;SDS011;16307;42.896;20.874;2023-10-31T02:50:38;21.42;;;10.10;;
25381;SDS011;16307;42.896;20.874;2023-10-31T02:53:26;22.00;;;10.48;;
25381;SDS011;16307;42.896;20.874;2023-10-31T02:56:12;27.00;;;11.68;;
25381;SDS011;16307;42.896;20.874;2023-10-31T02:58:58;21.08;;;10.55;;
25381;SDS011;16307;42.896;20.874;2023-10-31T03:01:44;28.65;;;11.27;;
25381;SDS011;16307;42.896;20.874;2023-10-31T03:04:31;23.00;;;11.60;;
25381;SDS011;16307;42.896;20.874;2023-10-31T03:07:17;25.98;;;11.85;;
25381;SDS011;16307;42.896;20.874;2023-10-31T03:10:03;31.10;;;13.63;;
25381;SDS011;16307;42.896;20.874;2023-10-31T03:12:49;31.48;;;12.88;;
25381;SDS011;16307;42.896;20.874;2023-10-31T03:15:35;27.48;;;12.98;;
25381;SDS011;16307;42.896;20.874;2023-10-31T03:18:21;28.48;;;13.05;;
25381;SDS011;16307;42.896;20.874;2023-10-31T03:21:07;30.17;;;16.33;;
25381;SDS011;16307;42.896;20.874;2023-10-31T03:23:54;33.80;;;17.05;;
25381;SDS011;16307;42.896;20.874;2023-10-31T03:26:41;37.97;;;17.90;;
25381;SDS011;16307;42.896;20.874;2023-10-31T03:29:27;36.20;;;17.42;;
25381;SDS011;16307;42.896;20.874;2023-10-31T03:32:14;31.77;;;16.70;;
25381;SDS011;16307;42.896;20.874;2023-10-31T03:35:01;37.17;;;16.52;;
25381;SDS011;16307;42.896;20.874;2023-10-31T03:37:47;32.17;;;14.60;;
25381;SDS011;16307;42.896;20.874;2023-10-31T03:40:33;32.55;;;16.65;;
25381;SDS011;16307;42.896;20.874;2023-10-31T03:43:19;33.42;;;14.35;;
25381;SDS011;16307;42.896;20.874;2023-10-31T03:46:06;30.23;;;14.82;;
25381;SDS011;16307;42.896;20.874;2023-10-31T03:48:52;20.80;;;10.63;;
25381;SDS011;16307;42.896;20.874;2023-10-31T03:51:38;24.25;;;10.20;;
25381;SDS011;16307;42.896;20.874;2023-10-31T03:54:24;19.60;;;10.00;;
25381;SDS011;16307;42.896;20.874;2023-10-31T03:57:10;21.67;;;10.95;;
25381;SDS011;16307;42.896;20.874;2023-10-31T03:59:56;30.58;;;11.80;;
25381;SDS011;16307;42.896;20.874;2023-10-31T04:02:42;29.52;;;13.35;;
25381;SDS011;16307;42.896;20.874;2023-10-31T04:05:28;26.70;;;13.63;;
25381;SDS011;16307;42.896;20.874;2023-10-31T04:08:15;25.88;;;13.10;;
25381;SDS011;16307;42.896;20.874;2023-10-31T04:11:01;35.50;;;15.20;;
25381;SDS011;16307;42.896;20.874;2023-10-31T04:13:47;33.22;;;16.77;;
25381;SDS011;16307;42.896;20.874;2023-10-31T04:16:37;35.65;;;15.48;;
25381;SDS011;16307;42.896;20.874;2023-10-31T04:19:25;22.30;;;10.30;;
25381;SDS011;16307;42.896;20.874;2023-10-31T04:22:11;19.90;;;8.88;;
25381;SDS011;16307;42.896;20.874;2023-10-31T04:24:57;21.00;;;8.27;;
25381;SDS011;16307;42.896;20.874;2023-10-31T04:27:43;15.48;;;7.50;;
25381;SDS011;16307;42.896;20.874;2023-10-31T04:30:29;16.63;;;7.80;;
25381;SDS011;16307;42.896;20.874;2023-10-31T04:33:16;23.05;;;9.13;;
25381;SDS011;16307;42.896;20.874;2023-10-31T04:36:02;20.48;;;10.48;;
25381;SDS011;16307;42.896;20.874;2023-10-31T04:38:49;24.83;;;11.32;;
25381;SDS011;16307;42.896;20.874;2023-10-31T04:41:35;30.63;;;14.38;;
25381;SDS011;16307;42.896;20.874;2023-10-31T04:44:21;43.80;;;22.25;;
25381;SDS011;16307;42.896;20.874;2023-10-31T04:47:07;34.97;;;17.60;;
25381;SDS011;16307;42.896;20.874;2023-10-31T04:49:53;25.67;;;13.32;;
25381;SDS011;16307;42.896;20.874;2023-10-31T04:52:39;21.70;;;11.77;;
25381;SDS011;16307;42.896;20.874;2023-10-31T04:55:25;15.82;;;8.57;;
25381;SDS011;16307;42.896;20.874;2023-10-31T04:58:11;16.80;;;8.60;;
25381;SDS011;16307;42.896;20.874;2023-10-31T05:00:57;17.38;;;8.38;;
25381;SDS011;16307;42.896;20.874;2023-10-31T05:03:43;18.75;;;8.20;;
25381;SDS011;16307;42.896;20.874;2023-10-31T05:06:29;18.05;;;8.25;;
25381;SDS011;16307;42.896;20.874;2023-10-31T05:09:15;18.13;;;8.35;;
25381;SDS011;16307;42.896;20.874;2023-10-31T05:12:01;24.42;;;8.98;;
25381;SDS011;16307;42.896;20.874;2023-10-31T05:14:48;19.15;;;8.60;;
25381;SDS011;16307;42.896;20.874;2023-10-31T05:17:34;22.92;;;8.85;;
25381;SDS011;16307;42.896;20.874;2023-10-31T05:20:20;24.40;;;9.48;;
25381;SDS011;16307;42.896;20.874;2023-10-31T05:23:06;20.85;;;8.25;;
25381;SDS011;16307;42.896;20.874;2023-10-31T05:25:52;23.63;;;9.55;;
25381;SDS011;16307;42.896;20.874;2023-10-31T05:28:52;21.02;;;9.38;;
25381;SDS011;16307;42.896;20.874;2023-10-31T05:31:38;15.95;;;8.38;;
25381;SDS011;16307;42.896;20.874;2023-10-31T05:34:24;18.42;;;8.80;;
25381;SDS011;16307;42.896;20.874;2023-10-31T05:37:10;17.80;;;9.00;;
25381;SDS011;16307;42.896;20.874;2023-10-31T05:39:56;22.35;;;8.35;;
25381;SDS011;16307;42.896;20.874;2023-10-31T05:42:42;18.85;;;8.60;;
25381;SDS011;16307;42.896;20.874;2023-10-31T05:45:28;17.10;;;9.73;;
25381;SDS011;16307;42.896;20.874;2023-10-31T05:48:14;21.27;;;10.88;;
25381;SDS011;16307;42.896;20.874;2023-10-31T05:51:00;19.63;;;9.88;;
25381;SDS011;16307;42.896;20.874;2023-10-31T05:53:46;23.38;;;12.82;;
25381;SDS011;16307;42.896;20.874;2023-10-31T05:56:33;31.50;;;21.85;;
25381;SDS011;16307;42.896;20.874;2023-10-31T05:59:20;39.53;;;22.50;;
25381;SDS011;16307;42.896;20.874;2023-10-31T06:02:06;41.42;;;18.90;;
25381;SDS011;16307;42.896;20.874;2023-10-31T06:04:52;27.08;;;16.05;;
25381;SDS011;16307;42.896;20.874;2023-10-31T06:07:38;29.08;;;15.63;;
25381;SDS011;16307;42.896;20.874;2023-10-31T06:10:24;25.85;;;14.38;;
25381;SDS011;16307;42.896;20.874;2023-10-31T06:13:10;22.05;;;12.77;;
25381;SDS011;16307;42.896;20.874;2023-10-31T06:15:56;30.67;;;12.63;;
25381;SDS011;16307;42.896;20.874;2023-10-31T06:18:46;25.20;;;12.15;;
25381;SDS011;16307;42.896;20.874;2023-10-31T06:21:32;30.90;;;12.32;;
25381;SDS011;16307;42.896;20.874;2023-10-31T06:24:18;27.75;;;12.30;;
25381;SDS011;16307;42.896;20.874;2023-10-31T06:27:04;24.58;;;12.27;;
25381;SDS011;16307;42.896;20.874;2023-10-31T06:29:50;25.80;;;12.65;;
25381;SDS011;16307;42.896;20.874;2023-10-31T06:32:56;33.55;;;12.77;;
25381;SDS011;16307;42.896;20.874;2023-10-31T06:35:42;28.65;;;12.68;;
25381;SDS011;16307;42.896;20.874;2023-10-31T06:38:28;31.00;;;13.60;;
25381;SDS011;16307;42.896;20.874;2023-10-31T06:41:14;29.92;;;13.73;;
25381;SDS011;16307;42.896;20.874;2023-10-31T06:44:00;25.92;;;11.30;;
25381;SDS011;16307;42.896;20.874;2023-10-31T06:46:46;19.92;;;10.10;;
25381;SDS011;16307;42.896;20.874;2023-10-31T06:49:32;28.70;;;10.98;;
25381;SDS011;16307;42.896;20.874;2023-10-31T06:52:18;26.30;;;10.60;;
25381;SDS011;16307;42.896;20.874;2023-10-31T06:55:04;27.58;;;11.55;;
25381;SDS011;16307;42.896;20.874;2023-10-31T06:57:50;29.67;;;12.27;;
25381;SDS011;16307;42.896;20.874;2023-10-31T07:00:37;28.52;;;13.13;;
25381;SDS011;16307;42.896;20.874;2023-10-31T07:03:23;33.65;;;14.55;;
25381;SDS011;16307;42.896;20.874;2023-10-31T07:06:09;35.60;;;15.98;;
25381;SDS011;16307;42.896;20.874;2023-10-31T07:08:55;41.55;;;15.25;;
25381;SDS011;16307;42.896;20.874;2023-10-31T07:11:43;41.42;;;15.20;;
25381;SDS011;16307;42.896;20.874;2023-10-31T07:14:29;41.88;;;15.38;;
25381;SDS011;16307;42.896;20.874;2023-10-31T07:17:15;36.22;;;15.23;;
25381;SDS011;16307;42.896;20.874;2023-10-31T07:20:01;42.63;;;16.17;;
25381;SDS011;16307;42.896;20.874;2023-10-31T07:22:47;34.08;;;14.85;;
25381;SDS011;16307;42.896;20.874;2023-10-31T07:25:33;40.08;;;16.88;;
25381;SDS011;16307;42.896;20.874;2023-10-31T07:28:19;26.98;;;14.32;;
25381;SDS011;16307;42.896;20.874;2023-10-31T07:31:05;38.75;;;15.38;;
25381;SDS011;16307;42.896;20.874;2023-10-31T07:33:51;29.58;;;14.90;;
25381;SDS011;16307;42.896;20.874;2023-10-31T07:36:37;37.28;;;14.60;;
25381;SDS011;16307;42.896;20.874;2023-10-31T07:39:25;33.05;;;15.52;;
25381;SDS011;16307;42.896;20.874;2023-10-31T07:42:11;36.67;;;14.82;;
25381;SDS011;16307;42.896;20.874;2023-10-31T07:44:58;33.00;;;15.25;;
25381;SDS011;16307;42.896;20.874;2023-10-31T07:47:44;31.80;;;15.45;;
25381;SDS011;16307;42.896;20.874;2023-10-31T07:50:30;35.47;;;15.52;;
25381;SDS011;16307;42.896;20.874;2023-10-31T07:53:16;40.15;;;16.92;;
25381;SDS011;16307;42.896;20.874;2023-10-31T07:56:03;38.10;;;17.25;;
25381;SDS011;16307;42.896;20.874;2023-10-31T07:58:49;41.25;;;16.15;;
25381;SDS011;16307;42.896;20.874;2023-10-31T08:01:35;35.80;;;16.02;;
25381;SDS011;16307;42.896;20.874;2023-10-31T08:04:22;37.28;;;16.15;;
25381;SDS011;16307;42.896;20.874;2023-10-31T08:07:08;42.25;;;17.35;;
25381;SDS011;16307;42.896;20.874;2023-10-31T08:09:54;28.98;;;15.38;;
25381;SDS011;16307;42.896;20.874;2023-10-31T08:12:40;37.03;;;15.32;;
25381;SDS011;16307;42.896;20.874;2023-10-31T08:15:26;33.10;;;14.60;;
25381;SDS011;16307;42.896;20.874;2023-10-31T08:18:12;40.58;;;16.55;;
25381;SDS011;16307;42.896;20.874;2023-10-31T08:20:58;41.95;;;18.30;;
25381;SDS011;16307;42.896;20.874;2023-10-31T08:23:44;39.30;;;16.73;;
25381;SDS011;16307;42.896;20.874;2023-10-31T08:26:32;41.53;;;17.17;;
25381;SDS011;16307;42.896;20.874;2023-10-31T08:29:19;41.85;;;19.27;;
25381;SDS011;16307;42.896;20.874;2023-10-31T08:32:05;42.30;;;20.30;;
25381;SDS011;16307;42.896;20.874;2023-10-31T08:34:52;37.75;;;20.00;;
25381;SDS011;16307;42.896;20.874;2023-10-31T08:37:39;44.58;;;20.70;;
25381;SDS011;16307;42.896;20.874;2023-10-31T08:40:25;51.63;;;22.05;;
25381;SDS011;16307;42.896;20.874;2023-10-31T08:43:11;42.55;;;21.40;;
25381;SDS011;16307;42.896;20.874;2023-10-31T08:45:57;47.75;;;21.60;;
25381;SDS011;16307;42.896;20.874;2023-10-31T08:48:43;48.17;;;21.38;;
25381;SDS011;16307;42.896;20.874;2023-10-31T08:51:29;46.65;;;19.02;;
25381;SDS011;16307;42.896;20.874;2023-10-31T08:54:15;43.70;;;18.67;;
25381;SDS011;16307;42.896;20.874;2023-10-31T08:57:01;45.70;;;20.08;;
25381;SDS011;16307;42.896;20.874;2023-10-31T08:59:47;38.70;;;19.15;;
25381;SDS011;16307;42.896;20.874;2023-10-31T09:02:33;41.08;;;19.80;;
25381;SDS011;16307;42.896;20.874;2023-10-31T10:23:42;30.55;;;11.50;;
25381;SDS011;16307;42.896;20.874;2023-10-31T10:26:28;25.55;;;9.95;;
25381;SDS011;16307;42.896;20.874;2023-10-31T10:29:15;22.75;;;10.35;;
25381;SDS011;16307;42.896;20.874;2023-10-31T10:32:04;30.15;;;10.18;;
25381;SDS011;16307;42.896;20.874;2023-10-31T10:34:52;22.13;;;9.85;;
25381;SDS011;16307;42.896;20.874;2023-10-31T10:37:38;27.45;;;11.43;;
25381;SDS011;16307;42.896;20.874;2023-10-31T10:40:25;33.70;;;12.25;;
25381;SDS011;16307;42.896;20.874;2023-10-31T10:43:16;28.27;;;11.02;;
25381;SDS011;16307;42.896;20.874;2023-10-31T10:46:07;29.60;;;12.80;;
25381;SDS011;16307;42.896;20.874;2023-10-31T10:48:55;46.13;;;15.63;;
25381;SDS011;16307;42.896;20.874;2023-10-31T10:51:47;36.38;;;14.43;;
25381;SDS011;16307;42.896;20.874;2023-10-31T11:00:45;30.92;;;9.77;;
25381;SDS011;16307;42.896;20.874;2023-10-31T11:03:32;23.58;;;9.60;;
25381;SDS011;16307;42.896;20.874;2023-10-31T11:06:19;23.58;;;10.00;;
25381;SDS011;16307;42.896;20.874;2023-10-31T11:09:05;28.83;;;11.00;;
25381;SDS011;16307;42.896;20.874;2023-10-31T11:11:52;29.33;;;11.82;;
25381;SDS011;16307;42.896;20.874;2023-10-31T11:14:39;34.17;;;12.90;;
25381;SDS011;16307;42.896;20.874;2023-10-31T11:17:36;32.40;;;11.00;;
25381;SDS011;16307;42.896;20.874;2023-10-31T11:20:24;27.70;;;11.70;;
25381;SDS011;16307;42.896;20.874;2023-10-31T11:23:11;24.60;;;10.43;;
25381;SDS011;16307;42.896;20.874;2023-10-31T11:25:57;26.80;;;10.55;;
25381;SDS011;16307;42.896;20.874;2023-10-31T11:28:44;29.70;;;11.00;;
25381;SDS011;16307;42.896;20.874;2023-10-31T11:31:30;38.33;;;13.43;;
25381;SDS011;16307;42.896;20.874;2023-10-31T11:34:19;49.33;;;18.65;;
25381;SDS011;16307;42.896;20.874;2023-10-31T11:43:04;32.15;;;12.48;;
25381;SDS011;16307;42.896;20.874;2023-10-31T11:45:51;29.48;;;12.77;;
25381;SDS011;16307;42.896;20.874;2023-10-31T11:48:45;27.63;;;11.80;;
25381;SDS011;16307;42.896;20.874;2023-10-31T11:51:32;23.95;;;10.20;;
25381;SDS011;16307;42.896;20.874;2023-10-31T11:54:19;24.25;;;10.25;;
25381;SDS011;16307;42.896;20.874;2023-10-31T11:57:05;27.15;;;10.15;;
25381;SDS011;16307;42.896;20.874;2023-10-31T11:59:51;26.67;;;10.45;;
25381;SDS011;16307;42.896;20.874;2023-10-31T12:02:37;25.50;;;12.38;;
25381;SDS011;16307;42.896;20.874;2023-10-31T12:05:23;31.52;;;12.93;;
25381;SDS011;16307;42.896;20.874;2023-10-31T12:08:10;34.55;;;15.10;;
25381;SDS011;16307;42.896;20.874;2023-10-31T12:11:06;45.83;;;17.42;;
25381;SDS011;16307;42.896;20.874;2023-10-31T12:14:07;41.55;;;15.90;;
25381;SDS011;16307;42.896;20.874;2023-10-31T12:16:53;47.60;;;15.48;;
25381;SDS011;16307;42.896;20.874;2023-10-31T12:19:40;26.67;;;11.30;;
25381;SDS011;16307;42.896;20.874;2023-10-31T12:22:27;19.63;;;10.13;;
25381;SDS011;16307;42.896;20.874;2023-10-31T12:25:13;46.13;;;11.52;;
25381;SDS011;16307;42.896;20.874;2023-10-31T12:27:59;31.20;;;13.00;;
25381;SDS011;16307;42.896;20.874;2023-10-31T12:30:46;28.90;;;11.80;;
25381;SDS011;16307;42.896;20.874;2023-10-31T12:33:37;28.10;;;11.73;;
25381;SDS011;16307;42.896;20.874;2023-10-31T12:36:24;32.67;;;10.45;;
25381;SDS011;16307;42.896;20.874;2023-10-31T12:39:11;32.75;;;11.43;;
25381;SDS011;16307;42.896;20.874;2023-10-31T12:41:58;27.27;;;10.68;;
25381;SDS011;16307;42.896;20.874;2023-10-31T12:44:44;30.02;;;12.15;;
25381;SDS011;16307;42.896;20.874;2023-10-31T12:47:31;30.50;;;11.75;;
25381;SDS011;16307;42.896;20.874;2023-10-31T12:50:21;29.58;;;12.18;;
25381;SDS011;16307;42.896;20.874;2023-10-31T12:53:08;29.40;;;10.77;;
25381;SDS011;16307;42.896;20.874;2023-10-31T12:55:54;30.55;;;11.13;;
25381;SDS011;16307;42.896;20.874;2023-10-31T12:58:40;35.35;;;12.48;;
25381;SDS011;16307;42.896;20.874;2023-10-31T13:01:26;31.60;;;12.45;;
25381;SDS011;16307;42.896;20.874;2023-10-31T13:04:13;32.95;;;12.90;;
25381;SDS011;16307;42.896;20.874;2023-10-31T13:10:04;34.20;;;13.38;;
25381;SDS011;16307;42.896;20.874;2023-10-31T13:12:51;33.58;;;13.73;;
25381;SDS011;16307;42.896;20.874;2023-10-31T13:15:38;38.88;;;14.57;;
25381;SDS011;16307;42.896;20.874;2023-10-31T13:18:24;38.83;;;14.10;;
25381;SDS011;16307;42.896;20.874;2023-10-31T13:21:11;34.53;;;13.70;;
25381;SDS011;16307;42.896;20.874;2023-10-31T13:24:00;35.28;;;12.57;;
25381;SDS011;16307;42.896;20.874;2023-10-31T13:26:46;25.63;;;10.93;;
25381;SDS011;16307;42.896;20.874;2023-10-31T13:29:38;25.27;;;10.32;;
25381;SDS011;16307;42.896;20.874;2023-10-31T13:32:24;25.80;;;10.93;;
25381;SDS011;16307;42.896;20.874;2023-10-31T13:35:10;29.02;;;11.52;;
25381;SDS011;16307;42.896;20.874;2023-10-31T13:37:56;29.55;;;11.68;;
25381;SDS011;16307;42.896;20.874;2023-10-31T13:40:42;29.98;;;12.32;;
25381;SDS011;16307;42.896;20.874;2023-10-31T13:43:28;29.23;;;11.68;;
25381;SDS011;16307;42.896;20.874;2023-10-31T13:46:14;31.77;;;13.05;;
25381;SDS011;16307;42.896;20.874;2023-10-31T13:49:00;24.60;;;10.80;;
25381;SDS011;16307;42.896;20.874;2023-10-31T13:51:47;30.80;;;13.02;;
25381;SDS011;16307;42.896;20.874;2023-10-31T13:54:36;32.75;;;14.68;;
25381;SDS011;16307;42.896;20.874;2023-10-31T13:57:22;30.60;;;13.50;;
25381;SDS011;16307;42.896;20.874;2023-10-31T14:00:08;36.47;;;14.20;;
25381;SDS011;16307;42.896;20.874;2023-10-31T14:02:59;30.50;;;13.23;;
25381;SDS011;16307;42.896;20.874;2023-10-31T14:05:45;40.13;;;13.38;;
25381;SDS011;16307;42.896;20.874;2023-10-31T14:08:32;34.28;;;13.10;;
25381;SDS011;16307;42.896;20.874;2023-10-31T14:11:19;36.63;;;13.32;;
25381;SDS011;16307;42.896;20.874;2023-10-31T14:14:06;34.78;;;14.07;;
25381;SDS011;16307;42.896;20.874;2023-10-31T14:16:54;28.35;;;13.50;;
25381;SDS011;16307;42.896;20.874;2023-10-31T14:19:40;36.00;;;15.45;;
25381;SDS011;16307;42.896;20.874;2023-10-31T14:22:28;37.30;;;14.07;;
25381;SDS011;16307;42.896;20.874;2023-10-31T14:25:14;32.45;;;14.02;;
25381;SDS011;16307;42.896;20.874;2023-10-31T14:28:01;37.55;;;14.82;;
25381;SDS011;16307;42.896;20.874;2023-10-31T14:30:47;42.20;;;15.45;;
25381;SDS011;16307;42.896;20.874;2023-10-31T14:33:33;38.35;;;16.38;;
25381;SDS011;16307;42.896;20.874;2023-10-31T14:36:20;38.03;;;16.02;;
25381;SDS011;16307;42.896;20.874;2023-10-31T14:39:06;38.95;;;15.68;;
25381;SDS011;16307;42.896;20.874;2023-10-31T14:41:54;39.72;;;16.02;;
25381;SDS011;16307;42.896;20.874;2023-10-31T14:44:40;41.60;;;15.15;;
25381;SDS011;16307;42.896;20.874;2023-10-31T14:47:27;41.17;;;15.35;;
25381;SDS011;16307;42.896;20.874;2023-10-31T14:50:13;44.17;;;15.65;;
25381;SDS011;16307;42.896;20.874;2023-10-31T14:53:00;47.03;;;15.00;;
25381;SDS011;16307;42.896;20.874;2023-10-31T14:55:46;43.72;;;15.05;;
25381;SDS011;16307;42.896;20.874;2023-10-31T14:58:32;42.35;;;14.18;;
25381;SDS011;16307;42.896;20.874;2023-10-31T15:01:18;46.58;;;15.10;;
25381;SDS011;16307;42.896;20.874;2023-10-31T15:04:04;37.25;;;15.00;;
25381;SDS011;16307;42.896;20.874;2023-10-31T15:06:51;37.33;;;12.50;;
25381;SDS011;16307;42.896;20.874;2023-10-31T15:09:37;30.67;;;10.35;;
25381;SDS011;16307;42.896;20.874;2023-10-31T15:12:23;23.92;;;8.02;;
25381;SDS011;16307;42.896;20.874;2023-10-31T15:15:10;20.67;;;5.68;;
25381;SDS011;16307;42.896;20.874;2023-10-31T15:17:56;14.80;;;6.47;;
25381;SDS011;16307;42.896;20.874;2023-10-31T15:20:43;15.50;;;5.00;;
25381;SDS011;16307;42.896;20.874;2023-10-31T15:23:29;16.75;;;6.40;;
25381;SDS011;16307;42.896;20.874;2023-10-31T15:26:16;20.92;;;5.95;;
25381;SDS011;16307;42.896;20.874;2023-10-31T15:29:02;17.35;;;5.57;;
25381;SDS011;16307;42.896;20.874;2023-10-31T15:31:48;13.55;;;5.10;;
25381;SDS011;16307;42.896;20.874;2023-10-31T15:34:40;17.02;;;4.78;;
25381;SDS011;16307;42.896;20.874;2023-10-31T15:37:28;13.32;;;4.95;;
25381;SDS011;16307;42.896;20.874;2023-10-31T15:40:14;25.08;;;7.10;;
25381;SDS011;16307;42.896;20.874;2023-10-31T15:43:00;20.80;;;7.03;;
25381;SDS011;16307;42.896;20.874;2023-10-31T15:45:47;19.60;;;6.05;;
25381;SDS011;16307;42.896;20.874;2023-10-31T15:48:33;16.02;;;5.50;;
25381;SDS011;16307;42.896;20.874;2023-10-31T15:51:19;16.63;;;6.25;;
25381;SDS011;16307;42.896;20.874;2023-10-31T15:54:06;19.88;;;7.15;;
25381;SDS011;16307;42.896;20.874;2023-10-31T15:56:53;17.00;;;6.40;;
25381;SDS011;16307;42.896;20.874;2023-10-31T15:59:39;21.60;;;6.18;;
25381;SDS011;16307;42.896;20.874;2023-10-31T16:02:25;23.92;;;5.75;;
25381;SDS011;16307;42.896;20.874;2023-10-31T16:05:12;17.85;;;6.72;;
25381;SDS011;16307;42.896;20.874;2023-10-31T16:07:58;24.98;;;7.30;;
25381;SDS011;16307;42.896;20.874;2023-10-31T16:10:45;21.88;;;6.75;;
25381;SDS011;16307;42.896;20.874;2023-10-31T16:13:34;16.95;;;7.03;;
25381;SDS011;16307;42.896;20.874;2023-10-31T16:16:21;22.90;;;6.70;;
25381;SDS011;16307;42.896;20.874;2023-10-31T16:19:07;15.95;;;5.00;;
25381;SDS011;16307;42.896;20.874;2023-10-31T16:21:53;14.90;;;5.00;;
25381;SDS011;16307;42.896;20.874;2023-10-31T16:24:40;16.65;;;4.88;;
25381;SDS011;16307;42.896;20.874;2023-10-31T16:27:27;15.95;;;5.32;;
25381;SDS011;16307;42.896;20.874;2023-10-31T16:30:14;14.02;;;4.95;;
25381;SDS011;16307;42.896;20.874;2023-10-31T16:33:01;14.73;;;5.20;;
25381;SDS011;16307;42.896;20.874;2023-10-31T16:35:47;21.23;;;5.20;;
25381;SDS011;16307;42.896;20.874;2023-10-31T16:38:34;17.92;;;5.40;;
25381;SDS011;16307;42.896;20.874;2023-10-31T16:41:20;14.98;;;5.10;;
25381;SDS011;16307;42.896;20.874;2023-10-31T16:44:06;17.02;;;5.60;;
25381;SDS011;16307;42.896;20.874;2023-10-31T16:46:56;14.50;;;5.45;;
25381;SDS011;16307;42.896;20.874;2023-10-31T16:49:46;18.80;;;5.93;;
25381;SDS011;16307;42.896;20.874;2023-10-31T16:52:32;17.25;;;7.35;;
25381;SDS011;16307;42.896;20.874;2023-10-31T16:55:18;20.83;;;8.32;;
25381;SDS011;16307;42.896;20.874;2023-10-31T16:58:05;17.80;;;8.00;;
25381;SDS011;16307;42.896;20.874;2023-10-31T17:00:55;21.10;;;8.05;;
25381;SDS011;16307;42.896;20.874;2023-10-31T17:03:41;26.02;;;8.95;;
25381;SDS011;16307;42.896;20.874;2023-10-31T17:06:28;26.08;;;8.98;;
25381;SDS011;16307;42.896;20.874;2023-10-31T17:09:14;22.15;;;9.07;;
25381;SDS011;16307;42.896;20.874;2023-10-31T17:12:00;32.30;;;10.82;;
25381;SDS011;16307;42.896;20.874;2023-10-31T17:14:47;36.97;;;12.65;;
25381;SDS011;16307;42.896;20.874;2023-10-31T17:17:33;32.38;;;11.10;;
25381;SDS011;16307;42.896;20.874;2023-10-31T17:20:20;25.10;;;9.88;;
25381;SDS011;16307;42.896;20.874;2023-10-31T17:23:06;27.13;;;10.18;;
25381;SDS011;16307;42.896;20.874;2023-10-31T17:25:52;24.75;;;10.05;;
25381;SDS011;16307;42.896;20.874;2023-10-31T17:28:39;21.13;;;10.02;;
25381;SDS011;16307;42.896;20.874;2023-10-31T17:31:25;31.65;;;9.80;;
25381;SDS011;16307;42.896;20.874;2023-10-31T17:34:11;23.67;;;12.00;;
25381;SDS011;16307;42.896;20.874;2023-10-31T17:36:57;25.25;;;11.50;;
25381;SDS011;16307;42.896;20.874;2023-10-31T17:39:47;26.58;;;10.57;;